Stations météo

réclame
Mon MeteoGroup
Sint Katelijne-Waver, Belgique (6439): Température de l'air & dewpoint: 19.09.2017 22:00:00 - 25.09.2017 22:00:00 (CEST)Sint Katelijne-Waver, Belgique (6439): Vitesse du vent & gusts: 19.09.2017 22:00:00 - 25.09.2017 22:00:00 (CEST)Sint Katelijne-Waver, Belgique (6439): Direction du vent: 19.09.2017 22:00:00 - 25.09.2017 22:00:00 (CEST)Sint Katelijne-Waver, Belgique (6439): reduced air pressure: 19.09.2017 22:00:00 - 25.09.2017 22:00:00 (CEST)Sint Katelijne-Waver, Belgique (6439): Ensoleillement: 19.09.2017 22:00:00 - 25.09.2017 22:00:00 (CEST)Sint Katelijne-Waver, Belgique (6439): Quantités de précipitations: 19.09.2017 22:00:00 - 25.09.2017 22:00:00 (CEST)
Date & Time tt [°C] td [°C] ff [km/h] ff [knt] fx [km/h] fx [knt] dd ppp [hPa] sd [min] rr [mm]
25.09.2017 22:00:00 13,9 10,6 4 2 11 6 NNE 1021,4 - -
25.09.2017 21:00:00 - - - - - - - - - -
25.09.2017 20:00:00 16,2 10,9 7 4 10 5 NNE 1021,2 0 0,0
25.09.2017 19:00:00 18,0 11,2 7 4 15 8 NE 1020,8 45 0,0
25.09.2017 18:00:00 19,4 11,0 9 5 16 9 NE 1020,4 60 0,0
25.09.2017 17:00:00 19,6 10,5 10 5 19 10 ENE 1020,5 60 0,0
25.09.2017 16:00:00 19,5 11,2 10 5 18 10 ENE 1020,4 60 0,0
25.09.2017 15:00:00 18,7 12,0 12 7 18 10 NE 1020,7 60 0,0
25.09.2017 14:00:00 17,6 12,1 11 6 18 10 NE 1021,0 60 0,0
25.09.2017 13:00:00 15,3 13,3 8 4 15 8 ENE 1021,3 60 0,0
25.09.2017 12:00:00 12,3 10,8 9 5 15 8 ENE 1021,5 18 0,0
25.09.2017 11:00:00 11,4 10,0 9 5 13 7 NE 1021,8 0 0,0
25.09.2017 10:00:00 10,8 9,3 7 4 11 6 NE 1021,4 18 0,0
25.09.2017 09:00:00 10,1 8,6 8 4 12 6 ENE 1021,4 34 0,0
25.09.2017 08:00:00 8,1 6,4 4 2 8 4 NE 1021,6 0 0,0
25.09.2017 07:00:00 9,5 7,8 6 3 9 5 NE 1021,3 0 0,0
25.09.2017 06:00:00 - - - - - - - - - -
25.09.2017 05:00:00 10,7 8,8 4 2 10 6 E 1021,5 0 0,0
25.09.2017 04:00:00 10,6 8,6 8 4 11 6 ENE 1021,7 0 0,0
25.09.2017 03:00:00 11,6 9,5 5 3 12 6 NE 1022,0 0 0,0
25.09.2017 02:00:00 11,6 9,3 7 4 11 6 ENE 1022,1 0 0,0
25.09.2017 01:00:00 12,5 10,0 6 4 11 6 ENE 1022,5 0 0,0
25.09.2017 00:00:00 - - - - - - - - - -
24.09.2017 23:00:00 13,6 10,6 6 4 10 5 ENE 1022,6 0 0,0
24.09.2017 22:00:00 13,5 10,0 6 3 10 6 ENE 1022,6 0 0,0
24.09.2017 21:00:00 13,5 9,7 6 3 8 4 NE 1022,6 0 0,0
24.09.2017 20:00:00 - - - - - - - - - -
24.09.2017 19:00:00 18,8 10,5 10 5 18 10 ENE 1022,1 60 0,0
24.09.2017 18:00:00 20,4 10,3 9 5 18 10 ENE 1022,2 60 0,0
24.09.2017 17:00:00 20,8 8,4 10 5 18 10 E 1022,3 60 0,0
24.09.2017 16:00:00 20,5 9,0 11 6 22 12 ENE 1022,6 60 0,0
24.09.2017 15:00:00 19,9 9,9 13 7 19 10 ENE 1022,8 60 0,0
24.09.2017 14:00:00 18,8 10,7 11 6 15 8 E 1023,2 60 0,0
24.09.2017 13:00:00 16,3 12,6 8 4 12 7 ENE 1023,5 60 0,0
24.09.2017 12:00:00 12,8 11,4 5 3 10 5 ENE 1023,8 60 0,0
24.09.2017 11:00:00 - - - - - - - - - -
24.09.2017 10:00:00 - - - - - - - - - -
24.09.2017 09:00:00 8,4 6,9 7 4 13 7 E 1023,2 0 0,0
24.09.2017 08:00:00 7,0 5,4 4 2 4 2 ENE 1023,0 0 0,0
24.09.2017 07:00:00 6,2 4,5 0 0 7 4 N 1022,9 0 0,0
24.09.2017 06:00:00 6,0 4,3 6 3 8 4 ENE 1022,6 0 0,0
24.09.2017 05:00:00 5,8 4,0 0 0 6 3 N 1022,8 0 0,0
24.09.2017 04:00:00 6,0 4,1 0 0 4 2 N 1023,0 0 0,0
24.09.2017 03:00:00 6,4 4,3 4 2 3 2 NNE 1023,1 0 0,0
24.09.2017 02:00:00 6,8 4,5 4 2 5 3 NW 1023,4 0 0,0
24.09.2017 01:00:00 8,0 5,5 0 0 10 5 N 1023,5 0 0,0
24.09.2017 00:00:00 8,6 6,4 8 4 10 5 NE 1023,5 0 0,0
23.09.2017 23:00:00 8,1 5,4 4 2 5 3 NNE 1023,8 0 0,0
23.09.2017 22:00:00 8,8 5,5 0 0 5 3 N 1023,9 0 0,0
23.09.2017 21:00:00 10,5 5,8 4 2 4 2 NE 1023,6 0 0,0
23.09.2017 20:00:00 13,3 6,0 4 2 11 6 ENE 1023,6 24 0,0
23.09.2017 19:00:00 16,7 7,5 7 4 13 7 ENE 1023,5 60 0,0
23.09.2017 18:00:00 17,6 6,5 9 5 15 8 ENE 1023,5 60 0,0
23.09.2017 17:00:00 17,6 7,2 9 5 17 9 E 1023,6 60 0,0
23.09.2017 16:00:00 - - - - - - - - - -
23.09.2017 15:00:00 16,9 9,1 10 5 19 10 ENE 1024,9 60 0,0
23.09.2017 14:00:00 15,6 9,6 11 6 14 8 E 1025,3 60 0,0
23.09.2017 13:00:00 - - - - - - - - - -
23.09.2017 12:00:00 11,9 10,5 9 5 14 8 E 1025,8 11 0,0
23.09.2017 11:00:00 10,5 9,1 6 3 11 6 ESE 1026,1 38 0,0
23.09.2017 10:00:00 8,2 6,7 4 2 6 4 E 1025,5 20 0,0
23.09.2017 09:00:00 6,7 5,2 4 2 4 2 ESE 1025,5 0 0,0
23.09.2017 08:00:00 5,8 4,3 4 2 4 2 SSE 1025,4 0 0,0
23.09.2017 07:00:00 6,0 4,4 0 0 3 2 N 1025,0 0 0,0
23.09.2017 06:00:00 5,9 4,3 0 0 4 2 N 1025,0 0 0,0
23.09.2017 05:00:00 5,7 4,0 0 0 3 2 N 1025,0 0 0,0
23.09.2017 04:00:00 6,2 4,4 4 2 5 3 SSE 1025,0 0 0,0
23.09.2017 03:00:00 - - - - - - - - - -
23.09.2017 02:00:00 7,4 5,5 0 0 4 2 N 1024,9 0 0,0
23.09.2017 01:00:00 7,9 5,8 0 0 3 2 N 1024,5 0 0,0
23.09.2017 00:00:00 8,5 6,3 0 0 3 2 N 1024,5 0 0,0
22.09.2017 23:00:00 9,4 6,9 0 0 2 1 N 1024,3 0 0,0
22.09.2017 22:00:00 10,6 7,7 0 0 4 2 N 1024,0 0 0,0
22.09.2017 21:00:00 12,1 8,3 4 2 6 3 NW 1023,7 0 0,0
22.09.2017 20:00:00 15,0 9,8 4 2 14 7 WNW 1023,0 20 0,0
22.09.2017 19:00:00 17,0 10,8 9 5 25 14 WNW 1022,5 51 0,0
22.09.2017 18:00:00 - - - - - - - - - -
22.09.2017 17:00:00 18,2 12,0 7 4 19 10 W 1021,7 4 0,0
22.09.2017 16:00:00 18,3 12,0 8 4 18 10 WSW 1021,7 37 0,0
22.09.2017 15:00:00 17,7 12,5 8 5 15 8 SW 1021,8 16 0,0
22.09.2017 14:00:00 - - - - - - - - - -
22.09.2017 13:00:00 - - - - - - - - - -
22.09.2017 12:00:00 - - - - - - - - - -
22.09.2017 11:00:00 14,7 12,6 4 2 8 4 W 1021,3 6 0,0
22.09.2017 10:00:00 12,8 11,2 5 3 8 4 SSW 1021,1 39 0,0
22.09.2017 09:00:00 10,1 8,6 0 0 4 2 N 1020,8 9 0,0
22.09.2017 08:00:00 8,9 7,3 4 2 5 3 SE 1020,4 0 0,0
22.09.2017 07:00:00 7,9 6,2 0 0 4 2 N 1020,0 0 0,0
22.09.2017 06:00:00 7,8 6,0 0 0 4 2 N 1019,9 0 0,0
22.09.2017 05:00:00 8,2 6,4 0 0 4 2 N 1019,8 0 0,0
22.09.2017 04:00:00 - - - - - - - - - -
22.09.2017 03:00:00 9,1 7,2 0 0 4 2 N 1020,1 0 0,0
22.09.2017 02:00:00 9,4 7,3 4 2 4 2 ESE 1020,2 0 0,0
22.09.2017 01:00:00 10,0 7,8 4 2 4 2 ESE 1019,9 0 0,0
22.09.2017 00:00:00 10,5 8,1 4 2 4 2 E 1020,0 0 0,0
21.09.2017 23:00:00 - - - - - - - - - -
21.09.2017 22:00:00 12,0 8,4 0 0 4 2 N 1020,0 0 0,0
21.09.2017 21:00:00 13,5 8,5 4 2 6 3 SSE 1019,8 0 0,0
21.09.2017 20:00:00 16,3 8,7 4 2 10 5 ESE 1019,3 3 0,0
21.09.2017 19:00:00 18,5 8,3 8 4 14 8 SE 1018,9 58 0,0
21.09.2017 18:00:00 - - - - - - - - - -
21.09.2017 17:00:00 - - - - - - - - - -
21.09.2017 16:00:00 19,6 8,5 10 6 24 13 SSE 1019,3 60 0,0
21.09.2017 15:00:00 - - - - - - - - - -
21.09.2017 14:00:00 - - - - - - - - - -
21.09.2017 13:00:00 - - - - - - - - - -
21.09.2017 12:00:00 16,8 9,5 11 6 14 8 SSE 1020,8 - -
21.09.2017 11:00:00 14,5 8,6 7 4 16 9 SSE 1021,2 60 0,0
21.09.2017 10:00:00 12,8 8,8 7 4 15 8 SSE 1021,0 60 0,0
21.09.2017 09:00:00 - - - - - - - - - -
21.09.2017 08:00:00 9,3 6,8 7 4 11 6 SE 1020,7 4 0,0
21.09.2017 07:00:00 8,9 6,5 6 3 8 5 SE 1020,7 0 0,0
21.09.2017 06:00:00 9,3 6,7 6 3 9 5 SE 1020,6 0 0,0
21.09.2017 05:00:00 9,6 6,8 5 3 8 5 SE 1020,6 0 0,0
21.09.2017 04:00:00 10,5 7,2 5 3 9 5 SE 1020,9 0 0,0
21.09.2017 03:00:00 11,5 8,1 6 3 10 5 SE 1021,1 0 0,0
21.09.2017 02:00:00 12,0 8,6 4 2 7 4 SSE 1021,2 0 0,0
21.09.2017 01:00:00 12,5 8,9 4 2 6 4 SE 1021,2 0 0,0
21.09.2017 00:00:00 - - - - - - - - - -
20.09.2017 23:00:00 12,7 8,8 4 2 7 4 SE 1021,1 0 0,0
20.09.2017 22:00:00 13,1 8,5 4 2 8 4 SSE 1021,1 0 0,0
20.09.2017 21:00:00 14,2 8,7 4 2 8 4 SSE 1021,1 0 0,0
20.09.2017 20:00:00 15,1 8,4 4 2 15 8 SSW 1020,9 8 0,0
20.09.2017 19:00:00 16,6 8,8 9 5 21 12 SSW 1020,8 35 0,0
20.09.2017 18:00:00 - - - - - - - - - -
20.09.2017 17:00:00 17,4 8,9 13 7 27 15 SSW 1021,1 57 0,0
20.09.2017 16:00:00 18,1 8,4 13 7 24 13 SSW 1021,2 60 0,0
20.09.2017 15:00:00 17,9 8,8 13 7 22 12 SW 1021,4 39 0,0
20.09.2017 14:00:00 - - - - - - - - - -
20.09.2017 13:00:00 16,0 9,2 13 7 26 14 WSW 1022,0 56 0,0
20.09.2017 12:00:00 14,8 9,9 13 7 21 11 SSW 1022,2 60 0,0
20.09.2017 11:00:00 13,4 9,2 10 6 21 11 SSW 1022,2 45 0,0
20.09.2017 10:00:00 - - - - - - - - - -
20.09.2017 09:00:00 10,1 8,5 9 5 16 9 SSW 1022,1 59 0,0
20.09.2017 08:00:00 9,2 7,5 4 2 10 5 SSW 1022,0 0 0,0
20.09.2017 07:00:00 8,5 6,8 4 2 5 3 SSE 1021,7 0 0,0
20.09.2017 06:00:00 10,0 8,2 4 2 9 5 S 1021,9 0 0,0
20.09.2017 05:00:00 10,8 9,0 6 3 10 5 SSW 1021,8 0 0,0
20.09.2017 04:00:00 11,4 9,5 7 4 14 7 SW 1021,9 0 0,0
20.09.2017 03:00:00 12,1 10,2 8 4 13 7 SSW 1022,2 0 0,0
20.09.2017 02:00:00 12,1 9,9 4 2 5 3 SE 1022,2 0 0,0
20.09.2017 01:00:00 12,4 10,2 4 2 9 5 W 1022,4 0 0,0
20.09.2017 00:00:00 12,7 10,4 4 2 9 5 SW 1022,5 0 0,1
19.09.2017 23:00:00 12,3 9,9 4 2 6 4 SSW 1022,4 0 0,0
19.09.2017 22:00:00 11,8 9,0 5 3 7 4 SW 1022,2 0 0,0

tt = Température de l'air
td = dewpoint
ff = Vitesse du vent
fx = gusts
dd = Direction du vent
ppp = reduced air pressure
sd = Ensoleillement
rr = Quantités de précipitations

stations d'obs. à proximité